sensor_id;sensor_type;location;lat;lon;timestamp;P1;durP1;ratioP1;P2;durP2;ratioP2
1505;SDS011;744;51.436;7.356;2023-02-15T00:01:42;14.40;;;11.30;;
1505;SDS011;744;51.436;7.356;2023-02-15T00:04:11;17.17;;;11.60;;
1505;SDS011;744;51.436;7.356;2023-02-15T00:06:39;18.17;;;11.00;;
1505;SDS011;744;51.436;7.356;2023-02-15T00:09:06;16.53;;;11.60;;
1505;SDS011;744;51.436;7.356;2023-02-15T00:11:34;17.20;;;11.97;;
1505;SDS011;744;51.436;7.356;2023-02-15T00:16:45;15.37;;;11.70;;
1505;SDS011;744;51.436;7.356;2023-02-15T00:19:14;17.23;;;11.63;;
1505;SDS011;744;51.436;7.356;2023-02-15T00:21:42;18.07;;;11.93;;
1505;SDS011;744;51.436;7.356;2023-02-15T00:24:10;14.40;;;11.13;;
1505;SDS011;744;51.436;7.356;2023-02-15T00:26:39;14.93;;;11.40;;
1505;SDS011;744;51.436;7.356;2023-02-15T00:29:06;15.10;;;10.70;;
1505;SDS011;744;51.436;7.356;2023-02-15T00:31:34;15.33;;;11.00;;
1505;SDS011;744;51.436;7.356;2023-02-15T00:34:10;17.23;;;11.77;;
1505;SDS011;744;51.436;7.356;2023-02-15T00:36:43;14.53;;;10.90;;
1505;SDS011;744;51.436;7.356;2023-02-15T00:39:10;21.00;;;12.50;;
1505;SDS011;744;51.436;7.356;2023-02-15T00:41:38;15.17;;;11.10;;
1505;SDS011;744;51.436;7.356;2023-02-15T00:44:05;14.40;;;10.60;;
1505;SDS011;744;51.436;7.356;2023-02-15T00:46:32;12.60;;;10.60;;
1505;SDS011;744;51.436;7.356;2023-02-15T00:48:59;19.20;;;13.17;;
1505;SDS011;744;51.436;7.356;2023-02-15T00:51:26;19.33;;;14.27;;
1505;SDS011;744;51.436;7.356;2023-02-15T00:53:53;17.70;;;13.30;;
1505;SDS011;744;51.436;7.356;2023-02-15T00:56:20;18.70;;;13.80;;
1505;SDS011;744;51.436;7.356;2023-02-15T00:58:47;17.50;;;13.27;;
1505;SDS011;744;51.436;7.356;2023-02-15T01:01:18;16.50;;;12.53;;
1505;SDS011;744;51.436;7.356;2023-02-15T01:03:46;19.70;;;13.43;;
1505;SDS011;744;51.436;7.356;2023-02-15T01:06:14;16.50;;;12.23;;
1505;SDS011;744;51.436;7.356;2023-02-15T01:08:42;18.10;;;12.97;;
1505;SDS011;744;51.436;7.356;2023-02-15T01:11:13;16.10;;;11.47;;
1505;SDS011;744;51.436;7.356;2023-02-15T01:13:49;18.53;;;13.53;;
1505;SDS011;744;51.436;7.356;2023-02-15T01:16:17;23.43;;;14.10;;
1505;SDS011;744;51.436;7.356;2023-02-15T01:18:45;17.43;;;12.60;;
1505;SDS011;744;51.436;7.356;2023-02-15T01:21:12;16.13;;;12.27;;
1505;SDS011;744;51.436;7.356;2023-02-15T01:23:41;16.23;;;12.40;;
1505;SDS011;744;51.436;7.356;2023-02-15T01:26:08;17.47;;;13.67;;
1505;SDS011;744;51.436;7.356;2023-02-15T01:28:36;15.60;;;12.50;;
1505;SDS011;744;51.436;7.356;2023-02-15T01:31:07;20.67;;;13.20;;
1505;SDS011;744;51.436;7.356;2023-02-15T01:33:35;17.87;;;12.30;;
1505;SDS011;744;51.436;7.356;2023-02-15T01:36:03;17.47;;;13.07;;
1505;SDS011;744;51.436;7.356;2023-02-15T01:38:31;19.57;;;14.50;;
1505;SDS011;744;51.436;7.356;2023-02-15T01:40:57;21.43;;;12.80;;
1505;SDS011;744;51.436;7.356;2023-02-15T01:43:45;18.50;;;13.10;;
1505;SDS011;744;51.436;7.356;2023-02-15T01:46:14;17.50;;;12.70;;
1505;SDS011;744;51.436;7.356;2023-02-15T01:48:49;14.00;;;11.13;;
1505;SDS011;744;51.436;7.356;2023-02-15T01:51:20;13.67;;;11.40;;
1505;SDS011;744;51.436;7.356;2023-02-15T01:53:52;15.60;;;12.30;;
1505;SDS011;744;51.436;7.356;2023-02-15T01:56:25;16.73;;;12.80;;
1505;SDS011;744;51.436;7.356;2023-02-15T01:58:56;15.13;;;11.47;;
1505;SDS011;744;51.436;7.356;2023-02-15T02:01:27;14.60;;;11.57;;
1505;SDS011;744;51.436;7.356;2023-02-15T02:06:44;16.30;;;12.70;;
1505;SDS011;744;51.436;7.356;2023-02-15T02:09:13;17.83;;;11.70;;
1505;SDS011;744;51.436;7.356;2023-02-15T02:11:41;16.17;;;12.33;;
1505;SDS011;744;51.436;7.356;2023-02-15T02:14:11;15.57;;;12.17;;
1505;SDS011;744;51.436;7.356;2023-02-15T02:27:49;14.40;;;11.10;;
1505;SDS011;744;51.436;7.356;2023-02-15T02:30:32;15.80;;;11.90;;
1505;SDS011;744;51.436;7.356;2023-02-15T02:35:44;17.77;;;11.23;;
1505;SDS011;744;51.436;7.356;2023-02-15T02:38:35;16.63;;;11.60;;
1505;SDS011;744;51.436;7.356;2023-02-15T02:44:28;15.30;;;12.53;;
1505;SDS011;744;51.436;7.356;2023-02-15T02:49:43;15.03;;;11.57;;
1505;SDS011;744;51.436;7.356;2023-02-15T02:55:02;15.90;;;12.47;;
1505;SDS011;744;51.436;7.356;2023-02-15T02:57:32;16.40;;;10.70;;
1505;SDS011;744;51.436;7.356;2023-02-15T03:00:02;17.87;;;10.90;;
1505;SDS011;744;51.436;7.356;2023-02-15T03:02:32;16.27;;;12.73;;
1505;SDS011;744;51.436;7.356;2023-02-15T03:05:05;18.50;;;12.20;;
1505;SDS011;744;51.436;7.356;2023-02-15T03:07:37;20.27;;;13.90;;
1505;SDS011;744;51.436;7.356;2023-02-15T03:10:06;16.77;;;13.00;;
1505;SDS011;744;51.436;7.356;2023-02-15T03:12:35;19.03;;;13.67;;
1505;SDS011;744;51.436;7.356;2023-02-15T03:15:07;17.37;;;13.30;;
1505;SDS011;744;51.436;7.356;2023-02-15T03:17:41;20.90;;;13.40;;
1505;SDS011;744;51.436;7.356;2023-02-15T03:20:11;20.87;;;13.07;;
1505;SDS011;744;51.436;7.356;2023-02-15T03:22:44;16.03;;;12.00;;
1505;SDS011;744;51.436;7.356;2023-02-15T03:25:21;19.40;;;13.87;;
1505;SDS011;744;51.436;7.356;2023-02-15T03:28:01;19.20;;;13.20;;
1505;SDS011;744;51.436;7.356;2023-02-15T03:30:32;19.23;;;13.40;;
1505;SDS011;744;51.436;7.356;2023-02-15T03:33:02;17.60;;;12.50;;
1505;SDS011;744;51.436;7.356;2023-02-15T03:35:33;17.83;;;13.77;;
1505;SDS011;744;51.436;7.356;2023-02-15T03:38:07;15.10;;;13.13;;
1505;SDS011;744;51.436;7.356;2023-02-15T03:40:38;20.10;;;13.80;;
1505;SDS011;744;51.436;7.356;2023-02-15T03:46:05;18.17;;;12.37;;
1505;SDS011;744;51.436;7.356;2023-02-15T03:48:38;16.40;;;12.50;;
1505;SDS011;744;51.436;7.356;2023-02-15T03:51:09;16.63;;;12.97;;
1505;SDS011;744;51.436;7.356;2023-02-15T03:54:08;17.27;;;12.70;;
1505;SDS011;744;51.436;7.356;2023-02-15T03:56:40;18.30;;;13.50;;
1505;SDS011;744;51.436;7.356;2023-02-15T03:59:28;15.70;;;11.70;;
1505;SDS011;744;51.436;7.356;2023-02-15T04:02:33;21.47;;;13.33;;
1505;SDS011;744;51.436;7.356;2023-02-15T04:05:06;15.30;;;12.50;;
1505;SDS011;744;51.436;7.356;2023-02-15T04:07:32;18.80;;;12.10;;
1505;SDS011;744;51.436;7.356;2023-02-15T04:09:59;17.37;;;13.13;;
1505;SDS011;744;51.436;7.356;2023-02-15T04:12:58;17.43;;;13.03;;
1505;SDS011;744;51.436;7.356;2023-02-15T04:15:25;19.67;;;12.40;;
1505;SDS011;744;51.436;7.356;2023-02-15T04:18:10;17.60;;;13.47;;
1505;SDS011;744;51.436;7.356;2023-02-15T04:20:37;16.23;;;12.53;;
1505;SDS011;744;51.436;7.356;2023-02-15T04:23:22;15.00;;;10.30;;
1505;SDS011;744;51.436;7.356;2023-02-15T04:26:07;18.57;;;12.87;;
1505;SDS011;744;51.436;7.356;2023-02-15T04:28:34;18.63;;;13.80;;
1505;SDS011;744;51.436;7.356;2023-02-15T04:31:01;17.60;;;13.07;;
1505;SDS011;744;51.436;7.356;2023-02-15T04:33:28;20.07;;;12.77;;
1505;SDS011;744;51.436;7.356;2023-02-15T04:35:55;17.37;;;13.30;;
1505;SDS011;744;51.436;7.356;2023-02-15T04:38:22;18.20;;;13.00;;
1505;SDS011;744;51.436;7.356;2023-02-15T04:40:50;19.00;;;13.37;;
1505;SDS011;744;51.436;7.356;2023-02-15T04:43:18;22.00;;;14.47;;
1505;SDS011;744;51.436;7.356;2023-02-15T04:45:49;20.70;;;14.13;;
1505;SDS011;744;51.436;7.356;2023-02-15T04:48:16;18.30;;;12.23;;
1505;SDS011;744;51.436;7.356;2023-02-15T04:50:43;15.40;;;11.47;;
1505;SDS011;744;51.436;7.356;2023-02-15T04:53:10;15.77;;;12.00;;
1505;SDS011;744;51.436;7.356;2023-02-15T04:55:37;16.27;;;12.47;;
1505;SDS011;744;51.436;7.356;2023-02-15T04:58:04;18.00;;;12.90;;
1505;SDS011;744;51.436;7.356;2023-02-15T05:00:31;18.40;;;12.87;;
1505;SDS011;744;51.436;7.356;2023-02-15T05:02:58;16.30;;;12.40;;
1505;SDS011;744;51.436;7.356;2023-02-15T05:05:24;16.63;;;12.37;;
1505;SDS011;744;51.436;7.356;2023-02-15T05:07:52;17.20;;;12.73;;
1505;SDS011;744;51.436;7.356;2023-02-15T05:10:18;16.27;;;12.30;;
1505;SDS011;744;51.436;7.356;2023-02-15T05:12:45;17.20;;;12.73;;
1505;SDS011;744;51.436;7.356;2023-02-15T05:15:12;17.13;;;12.40;;
1505;SDS011;744;51.436;7.356;2023-02-15T05:17:39;18.47;;;13.17;;
1505;SDS011;744;51.436;7.356;2023-02-15T05:20:06;21.10;;;13.70;;
1505;SDS011;744;51.436;7.356;2023-02-15T05:22:33;17.20;;;13.63;;
1505;SDS011;744;51.436;7.356;2023-02-15T05:25:00;18.50;;;12.70;;
1505;SDS011;744;51.436;7.356;2023-02-15T05:27:45;17.40;;;13.60;;
1505;SDS011;744;51.436;7.356;2023-02-15T05:30:31;19.07;;;14.20;;
1505;SDS011;744;51.436;7.356;2023-02-15T05:32:58;18.90;;;15.30;;
1505;SDS011;744;51.436;7.356;2023-02-15T05:35:25;21.53;;;13.83;;
1505;SDS011;744;51.436;7.356;2023-02-15T05:37:52;22.53;;;14.50;;
1505;SDS011;744;51.436;7.356;2023-02-15T05:40:19;16.93;;;13.60;;
1505;SDS011;744;51.436;7.356;2023-02-15T05:42:45;21.17;;;14.27;;
1505;SDS011;744;51.436;7.356;2023-02-15T05:45:12;17.10;;;13.97;;
1505;SDS011;744;51.436;7.356;2023-02-15T05:47:39;19.47;;;15.30;;
1505;SDS011;744;51.436;7.356;2023-02-15T05:50:06;19.57;;;14.37;;
1505;SDS011;744;51.436;7.356;2023-02-15T05:52:34;24.57;;;12.53;;
1505;SDS011;744;51.436;7.356;2023-02-15T05:55:01;18.30;;;14.70;;
1505;SDS011;744;51.436;7.356;2023-02-15T05:57:28;19.40;;;14.83;;
1505;SDS011;744;51.436;7.356;2023-02-15T05:59:55;17.90;;;13.50;;
1505;SDS011;744;51.436;7.356;2023-02-15T06:02:22;17.27;;;13.60;;
1505;SDS011;744;51.436;7.356;2023-02-15T06:04:49;26.90;;;14.93;;
1505;SDS011;744;51.436;7.356;2023-02-15T06:07:16;21.80;;;14.57;;
1505;SDS011;744;51.436;7.356;2023-02-15T06:09:43;20.30;;;13.97;;
1505;SDS011;744;51.436;7.356;2023-02-15T06:12:09;19.20;;;15.00;;
1505;SDS011;744;51.436;7.356;2023-02-15T06:14:36;19.17;;;12.90;;
1505;SDS011;744;51.436;7.356;2023-02-15T06:17:03;19.93;;;14.00;;
1505;SDS011;744;51.436;7.356;2023-02-15T06:19:30;23.30;;;14.30;;
1505;SDS011;744;51.436;7.356;2023-02-15T06:21:56;19.87;;;13.60;;
1505;SDS011;744;51.436;7.356;2023-02-15T06:24:23;23.37;;;14.37;;
1505;SDS011;744;51.436;7.356;2023-02-15T06:26:52;20.40;;;15.43;;
1505;SDS011;744;51.436;7.356;2023-02-15T06:29:19;20.17;;;13.80;;
1505;SDS011;744;51.436;7.356;2023-02-15T06:31:46;17.77;;;13.10;;
1505;SDS011;744;51.436;7.356;2023-02-15T06:34:13;26.83;;;17.50;;
1505;SDS011;744;51.436;7.356;2023-02-15T06:36:40;22.53;;;15.97;;
1505;SDS011;744;51.436;7.356;2023-02-15T06:39:06;22.67;;;15.67;;
1505;SDS011;744;51.436;7.356;2023-02-15T06:41:33;19.77;;;13.73;;
1505;SDS011;744;51.436;7.356;2023-02-15T06:44:00;21.03;;;14.30;;
1505;SDS011;744;51.436;7.356;2023-02-15T06:46:27;21.90;;;14.40;;
1505;SDS011;744;51.436;7.356;2023-02-15T06:48:54;20.40;;;14.43;;
1505;SDS011;744;51.436;7.356;2023-02-15T06:51:21;22.10;;;15.07;;
1505;SDS011;744;51.436;7.356;2023-02-15T06:53:48;18.70;;;13.80;;
1505;SDS011;744;51.436;7.356;2023-02-15T06:56:14;20.80;;;14.23;;
1505;SDS011;744;51.436;7.356;2023-02-15T06:58:41;21.50;;;14.67;;
1505;SDS011;744;51.436;7.356;2023-02-15T07:01:08;21.33;;;13.60;;
1505;SDS011;744;51.436;7.356;2023-02-15T07:03:35;23.63;;;14.77;;
1505;SDS011;744;51.436;7.356;2023-02-15T07:06:03;23.73;;;15.20;;
1505;SDS011;744;51.436;7.356;2023-02-15T07:08:34;22.37;;;14.90;;
1505;SDS011;744;51.436;7.356;2023-02-15T07:11:02;22.10;;;14.67;;
1505;SDS011;744;51.436;7.356;2023-02-15T07:13:47;22.37;;;14.73;;
1505;SDS011;744;51.436;7.356;2023-02-15T07:16:14;23.90;;;14.93;;
1505;SDS011;744;51.436;7.356;2023-02-15T07:18:41;22.57;;;14.70;;
1505;SDS011;744;51.436;7.356;2023-02-15T07:21:08;22.27;;;14.73;;
1505;SDS011;744;51.436;7.356;2023-02-15T07:23:35;21.97;;;15.17;;
1505;SDS011;744;51.436;7.356;2023-02-15T07:26:03;26.77;;;14.60;;
1505;SDS011;744;51.436;7.356;2023-02-15T07:28:32;19.70;;;14.67;;
1505;SDS011;744;51.436;7.356;2023-02-15T07:31:02;28.93;;;15.50;;
1505;SDS011;744;51.436;7.356;2023-02-15T07:33:30;29.60;;;16.17;;
1505;SDS011;744;51.436;7.356;2023-02-15T07:35:59;25.20;;;14.93;;
1505;SDS011;744;51.436;7.356;2023-02-15T07:38:35;24.63;;;14.30;;
1505;SDS011;744;51.436;7.356;2023-02-15T07:41:03;24.60;;;16.60;;
1505;SDS011;744;51.436;7.356;2023-02-15T07:43:32;23.40;;;15.03;;
1505;SDS011;744;51.436;7.356;2023-02-15T07:46:02;24.43;;;15.53;;
1505;SDS011;744;51.436;7.356;2023-02-15T07:48:31;24.53;;;15.73;;
1505;SDS011;744;51.436;7.356;2023-02-15T07:50:58;21.33;;;15.40;;
1505;SDS011;744;51.436;7.356;2023-02-15T07:53:26;21.23;;;15.90;;
1505;SDS011;744;51.436;7.356;2023-02-15T07:55:53;25.97;;;17.40;;
1505;SDS011;744;51.436;7.356;2023-02-15T07:58:21;21.57;;;16.30;;
1505;SDS011;744;51.436;7.356;2023-02-15T08:01:07;26.80;;;16.27;;
1505;SDS011;744;51.436;7.356;2023-02-15T08:03:34;19.80;;;15.10;;
1505;SDS011;744;51.436;7.356;2023-02-15T08:06:01;25.93;;;16.77;;
1505;SDS011;744;51.436;7.356;2023-02-15T08:08:28;22.03;;;16.63;;
1505;SDS011;744;51.436;7.356;2023-02-15T08:10:59;23.60;;;16.53;;
1505;SDS011;744;51.436;7.356;2023-02-15T08:13:48;24.17;;;15.53;;
1505;SDS011;744;51.436;7.356;2023-02-15T08:19:29;22.77;;;16.63;;
1505;SDS011;744;51.436;7.356;2023-02-15T08:21:58;21.90;;;15.53;;
1505;SDS011;744;51.436;7.356;2023-02-15T08:24:27;22.00;;;15.80;;
1505;SDS011;744;51.436;7.356;2023-02-15T08:26:56;22.70;;;19.23;;
1505;SDS011;744;51.436;7.356;2023-02-15T08:29:24;26.40;;;15.53;;
1505;SDS011;744;51.436;7.356;2023-02-15T08:31:53;22.83;;;16.80;;
1505;SDS011;744;51.436;7.356;2023-02-15T08:34:25;24.00;;;14.57;;
1505;SDS011;744;51.436;7.356;2023-02-15T08:36:52;25.60;;;15.10;;
1505;SDS011;744;51.436;7.356;2023-02-15T08:39:19;24.63;;;16.57;;
1505;SDS011;744;51.436;7.356;2023-02-15T08:41:46;23.83;;;14.57;;
1505;SDS011;744;51.436;7.356;2023-02-15T08:44:17;23.13;;;14.70;;
1505;SDS011;744;51.436;7.356;2023-02-15T08:46:46;21.17;;;15.83;;
1505;SDS011;744;51.436;7.356;2023-02-15T08:49:16;25.53;;;14.43;;
1505;SDS011;744;51.436;7.356;2023-02-15T08:51:44;21.97;;;15.27;;
1505;SDS011;744;51.436;7.356;2023-02-15T08:54:12;23.73;;;15.03;;
1505;SDS011;744;51.436;7.356;2023-02-15T08:56:41;27.43;;;16.90;;
1505;SDS011;744;51.436;7.356;2023-02-15T08:59:16;25.60;;;14.70;;
1505;SDS011;744;51.436;7.356;2023-02-15T09:01:44;21.20;;;14.47;;
1505;SDS011;744;51.436;7.356;2023-02-15T09:04:12;24.97;;;21.80;;
1505;SDS011;744;51.436;7.356;2023-02-15T09:06:42;16.60;;;13.60;;
1505;SDS011;744;51.436;7.356;2023-02-15T09:09:13;18.30;;;13.20;;
1505;SDS011;744;51.436;7.356;2023-02-15T09:11:41;17.83;;;12.60;;
1505;SDS011;744;51.436;7.356;2023-02-15T09:14:11;25.40;;;15.60;;
1505;SDS011;744;51.436;7.356;2023-02-15T09:16:40;21.80;;;12.43;;
1505;SDS011;744;51.436;7.356;2023-02-15T09:19:08;20.57;;;13.10;;
1505;SDS011;744;51.436;7.356;2023-02-15T09:21:35;17.83;;;12.80;;
1505;SDS011;744;51.436;7.356;2023-02-15T09:24:08;18.37;;;12.87;;
1505;SDS011;744;51.436;7.356;2023-02-15T09:26:37;22.30;;;13.40;;
1505;SDS011;744;51.436;7.356;2023-02-15T09:29:06;15.73;;;11.27;;
1505;SDS011;744;51.436;7.356;2023-02-15T09:31:48;27.83;;;11.80;;
1505;SDS011;744;51.436;7.356;2023-02-15T09:34:17;23.97;;;12.30;;
1505;SDS011;744;51.436;7.356;2023-02-15T09:36:45;15.47;;;11.10;;
1505;SDS011;744;51.436;7.356;2023-02-15T09:39:21;22.33;;;15.10;;
1505;SDS011;744;51.436;7.356;2023-02-15T09:50:25;18.60;;;11.90;;
1505;SDS011;744;51.436;7.356;2023-02-15T09:55:50;15.67;;;10.67;;
1505;SDS011;744;51.436;7.356;2023-02-15T10:01:20;17.67;;;12.37;;
1505;SDS011;744;51.436;7.356;2023-02-15T10:03:56;19.13;;;12.03;;
1505;SDS011;744;51.436;7.356;2023-02-15T10:06:42;21.60;;;12.80;;
1505;SDS011;744;51.436;7.356;2023-02-15T10:09:19;23.40;;;12.90;;
1505;SDS011;744;51.436;7.356;2023-02-15T10:14:48;22.13;;;11.77;;
1505;SDS011;744;51.436;7.356;2023-02-15T10:28:54;17.30;;;11.03;;
1505;SDS011;744;51.436;7.356;2023-02-15T10:34:18;19.97;;;12.10;;
1505;SDS011;744;51.436;7.356;2023-02-15T10:51:19;15.90;;;9.90;;
1505;SDS011;744;51.436;7.356;2023-02-15T10:54:22;15.73;;;9.40;;
1505;SDS011;744;51.436;7.356;2023-02-15T10:57:13;12.57;;;8.47;;
1505;SDS011;744;51.436;7.356;2023-02-15T11:07:50;14.40;;;8.10;;
1505;SDS011;744;51.436;7.356;2023-02-15T11:13:18;11.20;;;9.23;;
1505;SDS011;744;51.436;7.356;2023-02-15T11:18:19;19.70;;;9.50;;
1505;SDS011;744;51.436;7.356;2023-02-15T11:21:07;18.00;;;8.73;;
1505;SDS011;744;51.436;7.356;2023-02-15T11:23:54;12.37;;;8.70;;
1505;SDS011;744;51.436;7.356;2023-02-15T11:26:26;11.63;;;8.73;;
1505;SDS011;744;51.436;7.356;2023-02-15T11:28:55;17.90;;;8.30;;
1505;SDS011;744;51.436;7.356;2023-02-15T11:31:27;10.53;;;7.90;;
1505;SDS011;744;51.436;7.356;2023-02-15T11:34:23;16.73;;;8.43;;
1505;SDS011;744;51.436;7.356;2023-02-15T11:36:52;11.27;;;7.20;;
1505;SDS011;744;51.436;7.356;2023-02-15T11:39:24;14.87;;;8.00;;
1505;SDS011;744;51.436;7.356;2023-02-15T11:42:00;15.10;;;8.47;;
1505;SDS011;744;51.436;7.356;2023-02-15T11:44:34;9.60;;;7.07;;
1505;SDS011;744;51.436;7.356;2023-02-15T11:47:10;13.57;;;6.80;;
1505;SDS011;744;51.436;7.356;2023-02-15T11:49:38;10.20;;;7.97;;
1505;SDS011;744;51.436;7.356;2023-02-15T11:52:06;11.20;;;7.90;;
1505;SDS011;744;51.436;7.356;2023-02-15T11:54:36;9.87;;;7.80;;
1505;SDS011;744;51.436;7.356;2023-02-15T11:57:19;17.60;;;8.57;;
1505;SDS011;744;51.436;7.356;2023-02-15T11:59:54;9.83;;;6.93;;
1505;SDS011;744;51.436;7.356;2023-02-15T12:02:44;10.03;;;6.43;;
1505;SDS011;744;51.436;7.356;2023-02-15T12:05:17;11.30;;;7.20;;
1505;SDS011;744;51.436;7.356;2023-02-15T12:07:55;10.30;;;7.77;;
1505;SDS011;744;51.436;7.356;2023-02-15T12:10:53;14.40;;;7.77;;
1505;SDS011;744;51.436;7.356;2023-02-15T12:13:57;18.30;;;7.90;;
1505;SDS011;744;51.436;7.356;2023-02-15T12:16:26;12.40;;;7.37;;
1505;SDS011;744;51.436;7.356;2023-02-15T12:18:56;8.70;;;7.13;;
1505;SDS011;744;51.436;7.356;2023-02-15T12:21:27;11.70;;;7.80;;
1505;SDS011;744;51.436;7.356;2023-02-15T12:24:16;12.40;;;7.43;;
1505;SDS011;744;51.436;7.356;2023-02-15T12:27:03;11.43;;;7.60;;
1505;SDS011;744;51.436;7.356;2023-02-15T12:29:52;11.67;;;7.97;;
1505;SDS011;744;51.436;7.356;2023-02-15T12:32:30;12.53;;;7.50;;
1505;SDS011;744;51.436;7.356;2023-02-15T12:35:01;13.03;;;7.87;;
1505;SDS011;744;51.436;7.356;2023-02-15T12:37:54;12.47;;;8.30;;
1505;SDS011;744;51.436;7.356;2023-02-15T12:40:27;9.27;;;7.60;;
1505;SDS011;744;51.436;7.356;2023-02-15T12:42:57;12.07;;;9.70;;
1505;SDS011;744;51.436;7.356;2023-02-15T12:50:40;14.73;;;7.90;;
1505;SDS011;744;51.436;7.356;2023-02-15T12:53:18;9.53;;;7.20;;
1505;SDS011;744;51.436;7.356;2023-02-15T12:55:50;11.30;;;8.07;;
1505;SDS011;744;51.436;7.356;2023-02-15T12:58:26;10.37;;;7.33;;
1505;SDS011;744;51.436;7.356;2023-02-15T13:01:15;13.83;;;8.93;;
1505;SDS011;744;51.436;7.356;2023-02-15T13:06:17;9.67;;;6.90;;
1505;SDS011;744;51.436;7.356;2023-02-15T13:08:51;28.57;;;8.40;;
1505;SDS011;744;51.436;7.356;2023-02-15T13:11:38;13.87;;;9.03;;
1505;SDS011;744;51.436;7.356;2023-02-15T13:16:49;13.10;;;7.57;;
1505;SDS011;744;51.436;7.356;2023-02-15T13:19:19;12.07;;;8.00;;
1505;SDS011;744;51.436;7.356;2023-02-15T13:21:57;15.77;;;9.60;;
1505;SDS011;744;51.436;7.356;2023-02-15T13:24:32;11.17;;;8.80;;
1505;SDS011;744;51.436;7.356;2023-02-15T13:27:03;13.90;;;8.87;;
1505;SDS011;744;51.436;7.356;2023-02-15T13:29:42;10.47;;;7.63;;
1505;SDS011;744;51.436;7.356;2023-02-15T13:34:57;15.90;;;8.23;;
1505;SDS011;744;51.436;7.356;2023-02-15T13:37:45;10.40;;;7.60;;
1505;SDS011;744;51.436;7.356;2023-02-15T13:40:17;15.13;;;9.00;;
1505;SDS011;744;51.436;7.356;2023-02-15T13:43:47;11.63;;;8.00;;
1505;SDS011;744;51.436;7.356;2023-02-15T13:51:36;15.90;;;8.73;;
1505;SDS011;744;51.436;7.356;2023-02-15T13:54:22;14.03;;;9.10;;
1505;SDS011;744;51.436;7.356;2023-02-15T13:57:24;13.90;;;8.30;;
1505;SDS011;744;51.436;7.356;2023-02-15T13:59:57;15.73;;;8.13;;
1505;SDS011;744;51.436;7.356;2023-02-15T14:02:36;12.80;;;8.40;;
1505;SDS011;744;51.436;7.356;2023-02-15T14:08:04;14.63;;;8.23;;
1505;SDS011;744;51.436;7.356;2023-02-15T14:13:26;17.27;;;7.80;;
1505;SDS011;744;51.436;7.356;2023-02-15T14:19:34;15.90;;;8.30;;
1505;SDS011;744;51.436;7.356;2023-02-15T14:22:08;14.20;;;9.10;;
1505;SDS011;744;51.436;7.356;2023-02-15T14:24:40;12.00;;;7.60;;
1505;SDS011;744;51.436;7.356;2023-02-15T14:29:55;12.17;;;9.33;;
1505;SDS011;744;51.436;7.356;2023-02-15T14:35:22;15.37;;;8.13;;
1505;SDS011;744;51.436;7.356;2023-02-15T14:40:45;11.40;;;7.70;;
1505;SDS011;744;51.436;7.356;2023-02-15T14:48:45;26.00;;;9.10;;
1505;SDS011;744;51.436;7.356;2023-02-15T14:54:09;16.47;;;8.03;;
1505;SDS011;744;51.436;7.356;2023-02-15T14:56:37;14.00;;;8.43;;
1505;SDS011;744;51.436;7.356;2023-02-15T15:02:09;14.83;;;8.40;;
1505;SDS011;744;51.436;7.356;2023-02-15T15:04:36;29.07;;;9.20;;
1505;SDS011;744;51.436;7.356;2023-02-15T15:07:12;12.20;;;8.67;;
1505;SDS011;744;51.436;7.356;2023-02-15T15:09:46;13.43;;;8.30;;
1505;SDS011;744;51.436;7.356;2023-02-15T15:12:51;14.83;;;9.50;;
1505;SDS011;744;51.436;7.356;2023-02-15T15:18:06;14.27;;;9.67;;
1505;SDS011;744;51.436;7.356;2023-02-15T15:20:49;11.77;;;7.70;;
1505;SDS011;744;51.436;7.356;2023-02-15T15:28:57;15.67;;;9.73;;
1505;SDS011;744;51.436;7.356;2023-02-15T15:31:02;12.57;;;8.10;;
1505;SDS011;744;51.436;7.356;2023-02-15T15:50:33;14.00;;;9.07;;
1505;SDS011;744;51.436;7.356;2023-02-15T15:53:04;10.60;;;7.73;;
1505;SDS011;744;51.436;7.356;2023-02-15T15:55:32;10.40;;;8.07;;
1505;SDS011;744;51.436;7.356;2023-02-15T15:58:04;11.93;;;7.97;;
1505;SDS011;744;51.436;7.356;2023-02-15T16:00:52;12.00;;;7.97;;
1505;SDS011;744;51.436;7.356;2023-02-15T16:03:28;15.27;;;8.47;;
1505;SDS011;744;51.436;7.356;2023-02-15T16:05:55;14.67;;;8.97;;
1505;SDS011;744;51.436;7.356;2023-02-15T16:08:27;15.80;;;11.77;;
1505;SDS011;744;51.436;7.356;2023-02-15T16:10:56;13.00;;;10.43;;
1505;SDS011;744;51.436;7.356;2023-02-15T16:13:26;15.87;;;8.33;;
1505;SDS011;744;51.436;7.356;2023-02-15T16:15:53;13.00;;;9.20;;
1505;SDS011;744;51.436;7.356;2023-02-15T16:18:23;13.73;;;9.13;;
1505;SDS011;744;51.436;7.356;2023-02-15T16:20:53;13.70;;;8.77;;
1505;SDS011;744;51.436;7.356;2023-02-15T16:23:39;22.40;;;12.03;;
1505;SDS011;744;51.436;7.356;2023-02-15T16:29:14;13.07;;;8.00;;
1505;SDS011;744;51.436;7.356;2023-02-15T16:31:43;12.87;;;8.33;;
1505;SDS011;744;51.436;7.356;2023-02-15T16:34:22;18.03;;;9.70;;
1505;SDS011;744;51.436;7.356;2023-02-15T16:36:49;25.23;;;8.63;;
1505;SDS011;744;51.436;7.356;2023-02-15T16:39:18;31.03;;;9.43;;
1505;SDS011;744;51.436;7.356;2023-02-15T16:41:45;16.27;;;9.03;;
1505;SDS011;744;51.436;7.356;2023-02-15T16:44:16;19.63;;;9.47;;
1505;SDS011;744;51.436;7.356;2023-02-15T16:46:49;13.90;;;9.10;;
1505;SDS011;744;51.436;7.356;2023-02-15T16:49:21;14.83;;;9.57;;
1505;SDS011;744;51.436;7.356;2023-02-15T16:51:54;13.27;;;9.27;;
1505;SDS011;744;51.436;7.356;2023-02-15T16:54:27;13.27;;;9.50;;
1505;SDS011;744;51.436;7.356;2023-02-15T16:56:55;16.60;;;10.40;;
1505;SDS011;744;51.436;7.356;2023-02-15T16:59:56;14.07;;;9.83;;
1505;SDS011;744;51.436;7.356;2023-02-15T17:02:29;14.60;;;10.77;;
1505;SDS011;744;51.436;7.356;2023-02-15T17:05:18;14.37;;;9.00;;
1505;SDS011;744;51.436;7.356;2023-02-15T17:07:51;18.80;;;10.40;;
1505;SDS011;744;51.436;7.356;2023-02-15T17:10:39;17.77;;;10.00;;
1505;SDS011;744;51.436;7.356;2023-02-15T17:13:11;19.07;;;11.37;;
1505;SDS011;744;51.436;7.356;2023-02-15T17:15:41;23.57;;;10.70;;
1505;SDS011;744;51.436;7.356;2023-02-15T17:18:21;16.00;;;10.00;;
1505;SDS011;744;51.436;7.356;2023-02-15T17:20:50;15.80;;;10.80;;
1505;SDS011;744;51.436;7.356;2023-02-15T17:23:21;16.20;;;10.67;;
1505;SDS011;744;51.436;7.356;2023-02-15T17:25:54;19.00;;;9.67;;
1505;SDS011;744;51.436;7.356;2023-02-15T17:28:23;26.47;;;10.57;;
1505;SDS011;744;51.436;7.356;2023-02-15T17:30:52;18.90;;;10.03;;
1505;SDS011;744;51.436;7.356;2023-02-15T17:33:24;19.10;;;11.00;;
1505;SDS011;744;51.436;7.356;2023-02-15T17:41:25;12.70;;;10.03;;
1505;SDS011;744;51.436;7.356;2023-02-15T17:43:53;14.77;;;10.20;;
1505;SDS011;744;51.436;7.356;2023-02-15T17:46:20;16.00;;;9.67;;
1505;SDS011;744;51.436;7.356;2023-02-15T17:48:50;14.70;;;10.57;;
1505;SDS011;744;51.436;7.356;2023-02-15T17:51:20;21.50;;;10.53;;
1505;SDS011;744;51.436;7.356;2023-02-15T17:53:47;17.50;;;11.60;;
1505;SDS011;744;51.436;7.356;2023-02-15T17:56:34;12.83;;;10.17;;
1505;SDS011;744;51.436;7.356;2023-02-15T17:59:02;13.83;;;10.63;;
1505;SDS011;744;51.436;7.356;2023-02-15T18:01:36;14.33;;;10.10;;
1505;SDS011;744;51.436;7.356;2023-02-15T18:04:31;14.30;;;10.60;;
1505;SDS011;744;51.436;7.356;2023-02-15T18:07:18;13.67;;;9.80;;
1505;SDS011;744;51.436;7.356;2023-02-15T18:10:14;17.17;;;11.60;;
1505;SDS011;744;51.436;7.356;2023-02-15T18:13:01;15.17;;;10.97;;
1505;SDS011;744;51.436;7.356;2023-02-15T18:15:28;12.57;;;10.30;;
1505;SDS011;744;51.436;7.356;2023-02-15T18:17:55;14.77;;;10.90;;
1505;SDS011;744;51.436;7.356;2023-02-15T18:22:53;16.10;;;11.40;;
1505;SDS011;744;51.436;7.356;2023-02-15T18:25:20;15.40;;;10.43;;
1505;SDS011;744;51.436;7.356;2023-02-15T18:27:50;22.13;;;11.40;;
1505;SDS011;744;51.436;7.356;2023-02-15T18:30:21;13.53;;;10.97;;
1505;SDS011;744;51.436;7.356;2023-02-15T18:32:52;17.00;;;11.60;;
1505;SDS011;744;51.436;7.356;2023-02-15T18:35:23;13.70;;;11.40;;